createdAt,value
2019-05-07T00:02:16.481Z,14.77
2019-05-07T00:04:48.144Z,15.50
2019-05-07T00:07:19.268Z,13.23
2019-05-07T00:09:52.558Z,13.73
2019-05-07T00:12:23.799Z,13.30
2019-05-07T00:15:00.968Z,12.07
2019-05-07T00:17:28.133Z,13.83
2019-05-07T00:19:59.374Z,12.77
2019-05-07T00:22:32.583Z,13.70
2019-05-07T00:25:03.802Z,13.73
2019-05-07T00:27:34.961Z,13.97
2019-05-07T00:30:06.403Z,14.27
2019-05-07T00:32:38.013Z,15.50
2019-05-07T00:35:13.028Z,14.03
2019-05-07T00:37:49.279Z,19.27
2019-05-07T00:40:45.553Z,13.73
2019-05-07T00:43:19.866Z,15.07
2019-05-07T00:45:57.521Z,14.90
2019-05-07T00:48:29.303Z,13.30
2019-05-07T00:51:18.405Z,13.30
2019-05-07T00:53:51.898Z,12.77
2019-05-07T00:56:22.727Z,15.23
2019-05-07T00:58:54.072Z,16.00
2019-05-07T01:01:25.358Z,15.00
2019-05-07T01:03:58.857Z,14.33
2019-05-07T01:06:30.179Z,13.97
2019-05-07T01:09:03.154Z,18.77
2019-05-07T01:11:34.629Z,16.67
2019-05-07T01:14:05.963Z,15.10
2019-05-07T01:16:38.165Z,14.83
2019-05-07T01:19:09.673Z,15.40
2019-05-07T01:21:43.220Z,14.00
2019-05-07T01:24:14.235Z,13.13
2019-05-07T01:26:45.870Z,13.87
2019-05-07T01:29:16.954Z,15.60
2019-05-07T01:31:57.169Z,17.77
2019-05-07T01:34:59.382Z,15.07
2019-05-07T01:37:32.575Z,15.03
2019-05-07T01:40:04.224Z,13.90
2019-05-07T01:42:36.697Z,15.10
2019-05-07T01:45:09.529Z,16.03
2019-05-07T01:47:42.477Z,15.93
2019-05-07T01:50:14.246Z,15.70
2019-05-07T01:52:45.424Z,17.00
2019-05-07T01:55:16.608Z,17.27
2019-05-07T01:57:47.720Z,14.80
2019-05-07T02:00:19.353Z,15.60
2019-05-07T02:02:55.708Z,16.00
2019-05-07T02:05:33.460Z,14.73
2019-05-07T02:08:08.066Z,13.53
2019-05-07T02:11:02.103Z,16.03
2019-05-07T02:13:33.842Z,13.70
2019-05-07T02:16:05.231Z,15.17
2019-05-07T02:18:36.647Z,16.13
2019-05-07T02:21:07.865Z,16.47
2019-05-07T02:23:39.045Z,17.63
2019-05-07T02:26:10.146Z,14.73
2019-05-07T02:28:42.657Z,15.93
2019-05-07T02:31:15.233Z,15.43
2019-05-07T02:33:46.406Z,14.63
2019-05-07T02:36:18.109Z,17.67
2019-05-07T02:38:54.960Z,16.02
2019-05-07T02:41:34.598Z,14.83
2019-05-07T02:44:06.024Z,16.87
2019-05-07T02:46:59.758Z,16.30
2019-05-07T02:49:53.905Z,14.40
2019-05-07T02:52:53.821Z,13.70
2019-05-07T02:55:43.499Z,14.70
2019-05-07T02:58:14.409Z,14.40
2019-05-07T03:00:45.575Z,17.90
2019-05-07T03:03:17.187Z,15.93
2019-05-07T03:05:48.681Z,15.00
2019-05-07T03:08:26.303Z,13.67
2019-05-07T03:10:53.348Z,14.83
2019-05-07T03:13:24.605Z,15.77
2019-05-07T03:15:56.558Z,15.63
2019-05-07T03:18:27.916Z,16.20
2019-05-07T03:21:04.848Z,14.97
2019-05-07T03:23:43.497Z,17.77
2019-05-07T03:26:23.141Z,16.40
2019-05-07T03:29:04.124Z,14.90
2019-05-07T03:31:49.298Z,13.53
2019-05-07T03:34:47.419Z,15.67
2019-05-07T03:37:23.395Z,15.00
2019-05-07T03:39:57.861Z,16.20
2019-05-07T03:42:33.508Z,13.80
2019-05-07T03:45:17.208Z,16.83
2019-05-07T03:47:54.133Z,18.43
2019-05-07T03:50:25.538Z,16.70
2019-05-07T03:52:57.136Z,15.43
2019-05-07T03:55:28.267Z,20.10
2019-05-07T03:57:59.389Z,15.37
2019-05-07T04:00:33.405Z,18.07
2019-05-07T04:03:04.819Z,18.40
2019-05-07T04:05:36.195Z,15.63
2019-05-07T04:08:07.556Z,16.83
2019-05-07T04:10:38.704Z,18.80
2019-05-07T04:13:13.256Z,19.03
2019-05-07T04:15:43.949Z,17.53
2019-05-07T04:18:15.478Z,15.00
2019-05-07T04:20:46.700Z,18.30
2019-05-07T04:23:17.836Z,17.53
2019-05-07T04:26:04.323Z,17.03
2019-05-07T04:28:59.904Z,18.73
2019-05-07T04:31:35.530Z,19.03
2019-05-07T04:34:15.984Z,17.70
2019-05-07T04:36:49.120Z,16.63
2019-05-07T04:39:23.060Z,16.73
2019-05-07T04:41:53.560Z,16.57
2019-05-07T04:44:24.662Z,16.87
2019-05-07T04:46:55.852Z,16.00
2019-05-07T04:49:27.038Z,15.27
2019-05-07T04:52:04.287Z,17.00
2019-05-07T04:54:35.569Z,20.23
2019-05-07T04:57:09.331Z,15.97
2019-05-07T04:59:42.778Z,17.50
2019-05-07T05:02:18.827Z,14.77
2019-05-07T05:04:49.926Z,14.30
2019-05-07T05:07:22.495Z,15.10
2019-05-07T05:09:53.785Z,15.43
2019-05-07T05:12:25.033Z,15.10
2019-05-07T05:14:56.120Z,14.23
2019-05-07T05:17:27.537Z,17.47
2019-05-07T05:20:00.521Z,13.87
2019-05-07T05:22:48.545Z,13.53
2019-05-07T05:25:24.852Z,14.50
2019-05-07T05:27:55.968Z,15.50
2019-05-07T05:30:50.168Z,13.70
2019-05-07T05:33:23.446Z,12.47
2019-05-07T05:35:54.331Z,14.73
2019-05-07T05:38:25.593Z,14.30
2019-05-07T05:40:56.981Z,14.20
2019-05-07T05:43:53.438Z,12.60
2019-05-07T05:46:26.058Z,13.90
2019-05-07T05:48:57.172Z,12.33
2019-05-07T05:51:46.465Z,11.47
2019-05-07T05:54:37.024Z,13.67
2019-05-07T05:57:42.564Z,15.90
2019-05-07T06:00:32.926Z,13.47
2019-05-07T06:03:22.695Z,15.83
2019-05-07T06:06:02.001Z,13.50
2019-05-07T06:08:39.035Z,13.80
2019-05-07T06:11:16.168Z,11.50
2019-05-07T06:14:08.953Z,17.47
2019-05-07T06:16:45.578Z,14.40
2019-05-07T06:19:25.023Z,12.50
2019-05-07T06:22:33.575Z,14.03
2019-05-07T06:25:15.417Z,14.37
2019-05-07T06:27:46.751Z,15.00
2019-05-07T06:30:18.728Z,14.70
2019-05-07T06:32:52.125Z,13.97
2019-05-07T06:35:23.145Z,13.80
2019-05-07T06:37:54.301Z,12.97
2019-05-07T06:40:51.802Z,16.13
2019-05-07T06:43:27.458Z,16.10
2019-05-07T06:45:59.195Z,16.57
2019-05-07T06:48:38.936Z,12.63
2019-05-07T06:51:03.723Z,11.57
2019-05-07T06:53:35.035Z,11.27
2019-05-07T06:56:06.562Z,13.43
2019-05-07T06:58:46.662Z,12.20
2019-05-07T07:01:24.956Z,15.17
2019-05-07T07:04:13.923Z,12.80
2019-05-07T07:07:01.929Z,13.47
2019-05-07T07:09:45.965Z,14.97
2019-05-07T07:12:24.010Z,13.70
2019-05-07T07:14:53.696Z,14.03
2019-05-07T07:17:25.232Z,14.70
2019-05-07T07:19:56.595Z,14.37
2019-05-07T07:22:28.060Z,17.23
2019-05-07T07:24:59.252Z,13.07
2019-05-07T07:27:32.247Z,15.80
2019-05-07T07:30:13.186Z,12.63
2019-05-07T07:32:46.646Z,12.93
2019-05-07T07:35:18.895Z,13.97
2019-05-07T07:37:52.879Z,15.77
2019-05-07T07:40:35.307Z,11.67
2019-05-07T07:43:07.248Z,15.37
2019-05-07T07:45:38.710Z,14.50
2019-05-07T07:48:09.989Z,15.43
2019-05-07T07:50:42.148Z,15.43
2019-05-07T07:53:13.501Z,15.43
2019-05-07T07:56:03.698Z,16.40
2019-05-07T07:58:44.624Z,19.73
2019-05-07T08:01:26.072Z,19.50
2019-05-07T08:03:57.386Z,24.13
2019-05-07T08:06:32.689Z,18.97
2019-05-07T08:09:05.504Z,16.37
2019-05-07T08:11:36.852Z,19.02
2019-05-07T08:14:08.577Z,18.85
2019-05-07T08:16:39.938Z,18.77
2019-05-07T08:19:21.388Z,24.43
2019-05-07T08:21:44.872Z,19.00
2019-05-07T08:24:16.253Z,22.17
2019-05-07T08:26:47.849Z,19.82
2019-05-07T08:29:19.042Z,22.20
2019-05-07T08:32:13.588Z,19.82
2019-05-07T08:34:59.537Z,22.33
2019-05-07T08:37:32.148Z,19.87
2019-05-07T08:40:03.678Z,19.40
2019-05-07T08:42:34.966Z,20.72
2019-05-07T08:45:25.500Z,21.43
2019-05-07T08:47:58.910Z,18.50
2019-05-07T08:50:30.276Z,21.03
2019-05-07T08:53:02.821Z,21.73
2019-05-07T08:55:34.392Z,19.57
2019-05-07T08:58:06.144Z,17.70
2019-05-07T09:00:37.493Z,19.57
2019-05-07T09:03:19.312Z,23.35
2019-05-07T09:05:42.621Z,18.95
2019-05-07T09:08:15.033Z,19.92
2019-05-07T09:10:47.107Z,20.57
2019-05-07T09:13:19.117Z,20.55
2019-05-07T09:15:52.702Z,17.27
2019-05-07T09:18:23.536Z,18.77
2019-05-07T09:20:55.201Z,21.65
2019-05-07T09:23:26.853Z,19.62
2019-05-07T09:25:58.130Z,19.42
2019-05-07T09:28:48.369Z,21.50
2019-05-07T09:31:27.369Z,20.80
2019-05-07T09:33:58.833Z,21.85
2019-05-07T09:36:39.304Z,18.60
2019-05-07T09:39:12.097Z,19.52
2019-05-07T09:41:43.719Z,19.65
2019-05-07T09:44:15.103Z,22.05
2019-05-07T09:46:46.790Z,19.50
2019-05-07T09:49:18.338Z,18.90
2019-05-07T09:51:51.803Z,13.80
2019-05-07T09:54:23.137Z,20.62
2019-05-07T09:56:54.602Z,15.95
2019-05-07T09:59:26.187Z,15.30
2019-05-07T10:01:57.564Z,15.58
2019-05-07T10:04:48.083Z,18.05
2019-05-07T10:07:22.048Z,16.53
2019-05-07T10:09:52.921Z,17.30
2019-05-07T10:12:33.016Z,16.25
2019-05-07T10:15:05.157Z,13.93
2019-05-07T10:17:45.395Z,13.87
2019-05-07T10:20:22.118Z,14.50
2019-05-07T10:22:51.988Z,15.73
2019-05-07T10:25:25.090Z,15.97
2019-05-07T10:27:56.420Z,14.33
2019-05-07T10:30:27.696Z,15.00
2019-05-07T10:32:58.996Z,14.00
2019-05-07T10:35:33.166Z,13.37
2019-05-07T10:38:04.009Z,13.67
2019-05-07T10:40:35.375Z,15.63
2019-05-07T10:43:06.724Z,14.47
2019-05-07T10:46:03.106Z,15.53
2019-05-07T10:48:48.307Z,16.47
2019-05-07T10:51:21.704Z,14.53
2019-05-07T10:53:52.954Z,13.83
2019-05-07T10:56:24.169Z,15.97
2019-05-07T10:58:55.534Z,13.23
2019-05-07T11:01:42.523Z,17.17
2019-05-07T11:04:14.012Z,14.83
2019-05-07T11:06:45.398Z,14.63
2019-05-07T11:09:16.729Z,15.20
2019-05-07T11:11:48.001Z,16.03
2019-05-07T11:14:19.314Z,14.20
2019-05-07T11:17:03.415Z,18.90
2019-05-07T11:19:34.778Z,17.90
2019-05-07T11:22:06.128Z,14.87
2019-05-07T11:24:37.825Z,13.73
2019-05-07T11:27:09.261Z,14.13
2019-05-07T11:29:40.442Z,12.13
2019-05-07T11:32:12.337Z,13.33
2019-05-07T11:34:44.673Z,12.77
2019-05-07T11:37:16.013Z,14.73
2019-05-07T11:39:47.092Z,13.70
2019-05-07T11:42:42.710Z,15.67
2019-05-07T11:45:19.367Z,13.17
2019-05-07T11:47:50.972Z,11.70
2019-05-07T11:50:34.467Z,12.03
2019-05-07T11:53:07.917Z,12.37
2019-05-07T11:55:39.191Z,14.27
2019-05-07T11:58:12.648Z,13.10
2019-05-07T12:00:55.358Z,12.43
2019-05-07T12:03:26.782Z,12.17
2019-05-07T12:05:58.136Z,11.73
2019-05-07T12:08:38.412Z,9.30
2019-05-07T12:11:02.578Z,11.13
2019-05-07T12:13:34.184Z,9.37
2019-05-07T12:16:05.436Z,9.13
2019-05-07T12:18:36.710Z,10.30
2019-05-07T12:21:18.256Z,9.37
2019-05-07T12:23:42.167Z,9.93
2019-05-07T12:26:13.479Z,12.20
2019-05-07T12:28:44.694Z,10.80
2019-05-07T12:31:29.030Z,14.53
2019-05-07T12:34:08.361Z,10.23
2019-05-07T12:36:39.829Z,11.63
2019-05-07T12:39:12.787Z,12.67
2019-05-07T12:41:44.451Z,10.57
2019-05-07T12:44:16.140Z,9.87
2019-05-07T12:46:47.803Z,12.40
2019-05-07T12:49:18.887Z,12.53
2019-05-07T12:52:07.851Z,11.67
2019-05-07T12:55:03.126Z,13.90
2019-05-07T12:57:33.910Z,14.77
2019-05-07T13:00:24.526Z,16.17
2019-05-07T13:03:27.137Z,11.10
2019-05-07T13:05:58.449Z,11.80
2019-05-07T13:08:29.818Z,41.80
2019-05-07T13:11:03.021Z,11.00
2019-05-07T13:13:34.679Z,12.20
2019-05-07T13:16:06.265Z,10.87
2019-05-07T13:18:37.473Z,12.73
2019-05-07T13:21:08.904Z,9.67
2019-05-07T13:23:42.133Z,12.63
2019-05-07T13:26:13.259Z,10.27
2019-05-07T13:28:44.677Z,12.83
2019-05-07T13:31:18.071Z,11.33
2019-05-07T13:33:52.508Z,11.73
2019-05-07T13:36:24.197Z,11.03
2019-05-07T13:39:17.917Z,12.23
2019-05-07T13:41:56.854Z,9.73
2019-05-07T13:44:34.764Z,13.47
2019-05-07T13:47:23.895Z,20.07
2019-05-07T13:49:56.052Z,11.13
2019-05-07T13:52:27.670Z,14.63
2019-05-07T13:54:59.166Z,11.43
2019-05-07T13:57:32.225Z,11.20
2019-05-07T14:00:05.480Z,11.60
2019-05-07T14:02:37.186Z,12.30
2019-05-07T14:05:08.912Z,10.63
2019-05-07T14:07:43.489Z,17.20
2019-05-07T14:10:15.045Z,9.70
2019-05-07T14:12:46.416Z,10.43
2019-05-07T14:15:18.247Z,7.97
2019-05-07T14:17:49.886Z,13.63
2019-05-07T14:20:22.188Z,12.93
2019-05-07T14:22:53.498Z,9.50
2019-05-07T14:25:24.839Z,13.13
2019-05-07T14:27:58.749Z,8.63
2019-05-07T14:30:29.233Z,12.77
2019-05-07T14:33:06.097Z,8.37
2019-05-07T14:35:43.544Z,8.20
2019-05-07T14:38:20.110Z,8.57
2019-05-07T14:40:52.011Z,14.67
2019-05-07T14:43:33.340Z,8.67
2019-05-07T14:46:04.718Z,9.60
2019-05-07T14:48:36.443Z,8.40
2019-05-07T14:51:07.757Z,8.40
2019-05-07T14:53:39.028Z,8.70
2019-05-07T14:56:11.879Z,10.23
2019-05-07T14:58:43.771Z,10.10
2019-05-07T15:01:15.375Z,8.70
2019-05-07T15:03:47.178Z,10.87
2019-05-07T15:06:18.504Z,8.43
2019-05-07T15:08:52.086Z,8.77
2019-05-07T15:11:22.945Z,8.67
2019-05-07T15:13:54.335Z,9.83
2019-05-07T15:16:26.201Z,8.80
2019-05-07T15:18:59.074Z,9.17
2019-05-07T15:21:32.346Z,8.83
2019-05-07T15:24:04.244Z,7.47
2019-05-07T15:26:36.466Z,8.63
2019-05-07T15:29:12.051Z,9.03
2019-05-07T15:32:03.421Z,6.80
2019-05-07T15:34:35.227Z,7.60
2019-05-07T15:37:06.450Z,6.63
2019-05-07T15:39:38.505Z,6.23
2019-05-07T15:42:09.841Z,6.97
2019-05-07T15:44:43.074Z,9.20
2019-05-07T15:47:19.215Z,6.10
2019-05-07T15:49:50.431Z,8.17
2019-05-07T15:52:39.598Z,6.73
2019-05-07T15:55:11.913Z,9.13
2019-05-07T15:57:43.356Z,8.47
2019-05-07T16:00:16.631Z,9.17
2019-05-07T16:02:53.545Z,7.37
2019-05-07T16:05:23.783Z,6.67
2019-05-07T16:07:55.152Z,6.20
2019-05-07T16:10:26.481Z,5.17
2019-05-07T16:12:58.028Z,6.73
2019-05-07T16:15:31.775Z,7.53
2019-05-07T16:18:06.208Z,6.77
2019-05-07T16:20:37.420Z,6.03
2019-05-07T16:23:14.862Z,6.43
2019-05-07T16:25:42.322Z,8.30
2019-05-07T16:28:13.589Z,7.80
2019-05-07T16:30:44.750Z,8.50
2019-05-07T16:33:16.055Z,8.27
2019-05-07T16:35:47.763Z,7.97
2019-05-07T16:38:18.941Z,6.13
2019-05-07T16:40:52.209Z,7.10
2019-05-07T16:43:23.703Z,6.67
2019-05-07T16:45:54.915Z,6.73
2019-05-07T16:48:26.152Z,5.47
2019-05-07T16:50:57.579Z,7.43
2019-05-07T16:53:30.224Z,5.70
2019-05-07T16:56:02.931Z,6.37
2019-05-07T16:58:42.771Z,5.40
2019-05-07T17:01:14.516Z,6.43
2019-05-07T17:03:53.506Z,8.13
2019-05-07T17:06:25.404Z,7.00
2019-05-07T17:09:02.674Z,8.67
2019-05-07T17:11:34.424Z,7.50
2019-05-07T17:14:05.835Z,5.53
2019-05-07T17:16:37.109Z,7.03
2019-05-07T17:19:09.186Z,7.07
2019-05-07T17:21:42.925Z,5.70
2019-05-07T17:24:13.683Z,6.80
2019-05-07T17:26:44.797Z,5.73
2019-05-07T17:29:16.315Z,7.27
2019-05-07T17:31:47.555Z,5.07
2019-05-07T17:34:19.217Z,6.93
2019-05-07T17:36:52.297Z,5.03
2019-05-07T17:39:23.571Z,7.30
2019-05-07T17:41:54.716Z,6.33
2019-05-07T17:44:25.916Z,7.20
2019-05-07T17:46:57.423Z,6.40
2019-05-07T17:49:28.827Z,6.20
2019-05-07T17:52:00.451Z,6.83
2019-05-07T17:54:34.412Z,7.67
2019-05-07T17:57:06.007Z,6.00
2019-05-07T17:59:37.213Z,6.07
2019-05-07T18:02:18.701Z,7.57
2019-05-07T18:04:52.183Z,4.93
2019-05-07T18:07:23.119Z,6.27
2019-05-07T18:09:54.462Z,6.27
2019-05-07T18:12:25.644Z,5.90
2019-05-07T18:14:56.912Z,4.87
2019-05-07T18:17:37.071Z,5.47
2019-05-07T18:20:08.641Z,5.10
2019-05-07T18:22:39.985Z,8.73
2019-05-07T18:25:12.463Z,9.80
2019-05-07T18:27:43.868Z,6.40
2019-05-07T18:30:15.413Z,6.47
2019-05-07T18:32:52.092Z,10.37
2019-05-07T18:35:23.418Z,8.07
2019-05-07T18:37:55.056Z,6.73
2019-05-07T18:40:26.447Z,5.63
2019-05-07T18:42:57.885Z,6.30
2019-05-07T18:45:29.235Z,8.27
2019-05-07T18:48:02.308Z,4.37
2019-05-07T18:50:34.030Z,4.97
2019-05-07T18:53:05.414Z,4.90
2019-05-07T18:55:36.713Z,6.83
2019-05-07T18:58:08.118Z,6.60
2019-05-07T19:00:43.294Z,6.63
2019-05-07T19:03:15.160Z,8.67
2019-05-07T19:05:46.516Z,16.67
2019-05-07T19:08:17.877Z,17.60
2019-05-07T19:10:52.030Z,10.77
2019-05-07T19:13:22.978Z,10.93
2019-05-07T19:15:56.586Z,13.63
2019-05-07T19:18:27.403Z,11.07
2019-05-07T19:20:59.047Z,10.30
2019-05-07T19:23:32.868Z,10.37
2019-05-07T19:26:03.687Z,9.03
2019-05-07T19:28:34.954Z,12.03
2019-05-07T19:31:06.412Z,10.23
2019-05-07T19:33:38.094Z,11.37
2019-05-07T19:36:09.658Z,13.00
2019-05-07T19:38:42.089Z,9.30
2019-05-07T19:41:13.440Z,11.00
2019-05-07T19:43:45.000Z,15.87
2019-05-07T19:46:16.771Z,10.37
2019-05-07T19:48:48.178Z,6.93
2019-05-07T19:51:19.384Z,10.47
2019-05-07T19:53:52.606Z,6.40
2019-05-07T19:56:25.048Z,4.87
2019-05-07T19:58:56.514Z,6.47
2019-05-07T20:01:39.230Z,6.67
2019-05-07T20:04:10.566Z,7.00
2019-05-07T20:06:42.861Z,6.13
2019-05-07T20:09:16.322Z,5.83
2019-05-07T20:11:49.075Z,4.33
2019-05-07T20:14:22.316Z,4.77
2019-05-07T20:16:53.389Z,7.00
2019-05-07T20:19:24.718Z,6.43
2019-05-07T20:21:56.406Z,8.27
2019-05-07T20:24:27.765Z,6.80
2019-05-07T20:26:59.068Z,8.50
2019-05-07T20:29:32.154Z,8.20
2019-05-07T20:32:03.135Z,9.67
2019-05-07T20:34:34.380Z,8.77
2019-05-07T20:37:05.831Z,9.67
2019-05-07T20:39:37.459Z,6.10
2019-05-07T20:42:08.833Z,5.57
2019-05-07T20:44:40.018Z,6.60
2019-05-07T20:47:12.696Z,5.87
2019-05-07T20:49:44.387Z,7.43
2019-05-07T20:52:15.925Z,5.90
2019-05-07T20:54:57.475Z,10.53
2019-05-07T20:57:32.087Z,5.80
2019-05-07T21:00:03.980Z,11.30
2019-05-07T21:02:44.868Z,8.27
2019-05-07T21:05:08.325Z,12.47
2019-05-07T21:07:39.552Z,8.67
2019-05-07T21:10:12.658Z,8.70
2019-05-07T21:12:43.994Z,8.30
2019-05-07T21:15:15.134Z,6.70
2019-05-07T21:17:46.445Z,7.70
2019-05-07T21:20:17.827Z,7.23
2019-05-07T21:22:49.355Z,8.13
2019-05-07T21:25:22.589Z,9.00
2019-05-07T21:27:53.493Z,8.53
2019-05-07T21:30:25.177Z,7.90
2019-05-07T21:32:56.511Z,9.40
2019-05-07T21:35:27.743Z,8.07
2019-05-07T21:37:58.925Z,8.83
2019-05-07T21:40:32.110Z,7.93
2019-05-07T21:43:03.423Z,7.43
2019-05-07T21:45:34.748Z,7.50
2019-05-07T21:48:06.268Z,8.57
2019-05-07T21:50:37.380Z,7.33
2019-05-07T21:53:15.405Z,8.67
2019-05-07T21:56:02.210Z,7.07
2019-05-07T21:58:32.820Z,7.93
2019-05-07T22:01:08.132Z,7.60
2019-05-07T22:03:43.026Z,7.13
2019-05-07T22:06:13.687Z,6.63
2019-05-07T22:08:45.006Z,7.97
2019-05-07T22:11:16.282Z,8.17
2019-05-07T22:13:47.930Z,5.77
2019-05-07T22:16:22.022Z,7.17
2019-05-07T22:18:53.110Z,8.43
2019-05-07T22:21:25.121Z,8.83
2019-05-07T22:23:56.386Z,8.27
2019-05-07T22:26:28.224Z,8.13
2019-05-07T22:28:59.721Z,8.00
2019-05-07T22:31:53.110Z,7.63
2019-05-07T22:34:35.599Z,8.77
2019-05-07T22:37:06.848Z,7.97
2019-05-07T22:39:38.004Z,6.23
2019-05-07T22:42:09.186Z,8.50
2019-05-07T22:44:42.437Z,9.43
2019-05-07T22:47:22.177Z,9.33
2019-05-07T22:49:53.773Z,7.80
2019-05-07T22:52:25.297Z,10.03
2019-05-07T22:54:56.768Z,7.43
2019-05-07T22:57:41.942Z,8.27
2019-05-07T23:00:22.475Z,7.10
2019-05-07T23:02:53.923Z,7.37
2019-05-07T23:05:25.214Z,8.77
2019-05-07T23:07:56.405Z,7.90
2019-05-07T23:10:27.773Z,7.37
2019-05-07T23:12:59.035Z,7.47
2019-05-07T23:15:32.140Z,8.33
2019-05-07T23:18:04.486Z,7.70
2019-05-07T23:20:35.757Z,9.50
2019-05-07T23:23:07.077Z,7.07
2019-05-07T23:25:38.687Z,7.63
2019-05-07T23:28:12.417Z,9.27
2019-05-07T23:30:44.305Z,7.83
2019-05-07T23:33:15.664Z,6.73
2019-05-07T23:35:46.874Z,6.00
2019-05-07T23:38:17.951Z,11.93
2019-05-07T23:41:12.649Z,8.13
2019-05-07T23:44:02.905Z,5.80
2019-05-07T23:46:34.384Z,8.73
2019-05-07T23:49:05.637Z,7.67
2019-05-07T23:51:36.823Z,6.30
2019-05-07T23:54:08.063Z,5.90
2019-05-07T23:56:39.408Z,7.47
2019-05-07T23:59:14.458Z,8.20
